sensor_id;sensor_type;location;lat;lon;timestamp;pressure;altitude;pressure_sealevel;temperature;humidity
77159;BME280;66129;45.890;13.714;2023-04-01T00:01:46;99868.88;;;8.69;84.08
77159;BME280;66129;45.890;13.714;2023-04-01T00:04:11;99858.66;;;8.71;83.91
77159;BME280;66129;45.890;13.714;2023-04-01T00:06:37;99836.53;;;8.73;83.16
77159;BME280;66129;45.890;13.714;2023-04-01T00:09:03;99839.94;;;8.73;83.38
77159;BME280;66129;45.890;13.714;2023-04-01T00:11:28;99847.69;;;8.79;83.88
77159;BME280;66129;45.890;13.714;2023-04-01T00:13:54;99857.06;;;8.79;83.57
77159;BME280;66129;45.890;13.714;2023-04-01T00:16:19;99848.66;;;8.87;81.84
77159;BME280;66129;45.890;13.714;2023-04-01T00:18:45;99862.28;;;8.90;82.65
77159;BME280;66129;45.890;13.714;2023-04-01T00:21:12;99859.66;;;8.83;83.51
77159;BME280;66129;45.890;13.714;2023-04-01T00:23:38;99867.34;;;8.84;83.31
77159;BME280;66129;45.890;13.714;2023-04-01T00:26:04;99860.53;;;8.86;82.34
77159;BME280;66129;45.890;13.714;2023-04-01T00:28:30;99867.44;;;8.92;82.91
77159;BME280;66129;45.890;13.714;2023-04-01T00:30:56;99869.03;;;8.82;83.36
77159;BME280;66129;45.890;13.714;2023-04-01T00:33:22;99853.50;;;8.68;83.42
77159;BME280;66129;45.890;13.714;2023-04-01T00:35:47;99871.56;;;8.80;83.09
77159;BME280;66129;45.890;13.714;2023-04-01T00:38:13;99850.94;;;8.66;83.35
77159;BME280;66129;45.890;13.714;2023-04-01T00:40:43;99872.41;;;8.79;83.51
77159;BME280;66129;45.890;13.714;2023-04-01T00:43:15;99857.91;;;8.78;82.68
77159;BME280;66129;45.890;13.714;2023-04-01T00:45:43;99863.97;;;8.87;82.25
77159;BME280;66129;45.890;13.714;2023-04-01T00:48:30;99858.00;;;8.86;82.69
77159;BME280;66129;45.890;13.714;2023-04-01T00:51:02;99836.53;;;8.73;82.27
77159;BME280;66129;45.890;13.714;2023-04-01T00:53:31;99863.06;;;8.81;83.40
77159;BME280;66129;45.890;13.714;2023-04-01T00:56:05;99869.63;;;8.62;85.25
77159;BME280;66129;45.890;13.714;2023-04-01T00:58:35;99864.84;;;8.25;86.15
77159;BME280;66129;45.890;13.714;2023-04-01T01:01:03;99852.31;;;7.85;87.25
77159;BME280;66129;45.890;13.714;2023-04-01T01:03:28;99870.91;;;7.78;88.37
77159;BME280;66129;45.890;13.714;2023-04-01T01:12:13;99867.59;;;7.35;92.00
77159;BME280;66129;45.890;13.714;2023-04-01T01:14:55;99844.53;;;7.28;91.46
77159;BME280;66129;45.890;13.714;2023-04-01T01:20:19;99857.44;;;7.37;91.39
77159;BME280;66129;45.890;13.714;2023-04-01T01:22:56;99859.97;;;7.37;91.39
77159;BME280;66129;45.890;13.714;2023-04-01T01:31:03;99858.63;;;7.09;91.94
77159;BME280;66129;45.890;13.714;2023-04-01T01:36:55;99840.19;;;6.79;93.59
77159;BME280;66129;45.890;13.714;2023-04-01T01:39:26;99845.13;;;6.70;92.46
77159;BME280;66129;45.890;13.714;2023-04-01T01:41:55;99835.47;;;6.55;93.26
77159;BME280;66129;45.890;13.714;2023-04-01T01:44:23;99845.69;;;6.56;93.29
77159;BME280;66129;45.890;13.714;2023-04-01T01:46:51;99809.53;;;6.32;94.39
77159;BME280;66129;45.890;13.714;2023-04-01T01:49:18;99809.38;;;6.25;95.79
77159;BME280;66129;45.890;13.714;2023-04-01T01:51:44;99801.88;;;6.32;94.97
77159;BME280;66129;45.890;13.714;2023-04-01T01:54:14;99809.91;;;6.50;94.69
77159;BME280;66129;45.890;13.714;2023-04-01T01:56:41;99818.50;;;6.55;94.50
77159;BME280;66129;45.890;13.714;2023-04-01T01:59:08;99823.34;;;6.43;94.25
77159;BME280;66129;45.890;13.714;2023-04-01T02:01:39;99813.56;;;6.21;95.62
77159;BME280;66129;45.890;13.714;2023-04-01T02:04:07;99789.41;;;6.03;96.03
77159;BME280;66129;45.890;13.714;2023-04-01T02:06:38;99806.69;;;6.17;95.62
77159;BME280;66129;45.890;13.714;2023-04-01T02:09:07;99800.72;;;6.17;95.78
77159;BME280;66129;45.890;13.714;2023-04-01T02:17:00;99798.41;;;6.27;94.04
77159;BME280;66129;45.890;13.714;2023-04-01T02:19:35;99789.25;;;5.95;94.16
77159;BME280;66129;45.890;13.714;2023-04-01T02:22:04;99809.44;;;5.89;95.35
77159;BME280;66129;45.890;13.714;2023-04-01T02:24:34;99792.25;;;5.79;95.42
77159;BME280;66129;45.890;13.714;2023-04-01T02:27:01;99793.59;;;5.65;96.35
77159;BME280;66129;45.890;13.714;2023-04-01T02:29:26;99795.75;;;5.49;96.32
77159;BME280;66129;45.890;13.714;2023-04-01T02:31:53;99792.38;;;5.50;96.71
77159;BME280;66129;45.890;13.714;2023-04-01T02:34:21;99816.31;;;5.59;97.04
77159;BME280;66129;45.890;13.714;2023-04-01T02:36:49;99820.75;;;5.66;96.97
77159;BME280;66129;45.890;13.714;2023-04-01T02:39:15;99791.25;;;5.39;97.24
77159;BME280;66129;45.890;13.714;2023-04-01T02:41:43;99795.22;;;5.28;98.34
77159;BME280;66129;45.890;13.714;2023-04-01T02:44:10;99824.44;;;5.45;98.01
77159;BME280;66129;45.890;13.714;2023-04-01T02:46:37;99826.28;;;5.50;97.98
77159;BME280;66129;45.890;13.714;2023-04-01T02:49:03;99826.28;;;5.50;97.08
77159;BME280;66129;45.890;13.714;2023-04-01T02:51:28;99811.66;;;5.42;96.53
77159;BME280;66129;45.890;13.714;2023-04-01T02:53:54;99843.78;;;5.40;96.79
77159;BME280;66129;45.890;13.714;2023-04-01T02:56:20;99817.13;;;5.23;97.12
77159;BME280;66129;45.890;13.714;2023-04-01T02:58:47;99836.00;;;5.33;97.37
77159;BME280;66129;45.890;13.714;2023-04-01T03:01:12;99797.50;;;5.18;97.12
77159;BME280;66129;45.890;13.714;2023-04-01T03:03:39;99835.25;;;5.37;96.75
77159;BME280;66129;45.890;13.714;2023-04-01T03:06:10;99842.06;;;5.39;97.02
77159;BME280;66129;45.890;13.714;2023-04-01T03:08:36;99838.22;;;5.21;96.34
77159;BME280;66129;45.890;13.714;2023-04-01T03:11:01;99846.56;;;5.17;96.61
77159;BME280;66129;45.890;13.714;2023-04-01T03:13:27;99849.25;;;5.21;96.68
77159;BME280;66129;45.890;13.714;2023-04-01T03:15:52;99818.25;;;5.02;96.64
77159;BME280;66129;45.890;13.714;2023-04-01T03:18:18;99856.63;;;5.14;97.17
77159;BME280;66129;45.890;13.714;2023-04-01T03:20:44;99838.41;;;4.97;98.49
77159;BME280;66129;45.890;13.714;2023-04-01T03:23:09;99852.19;;;5.05;98.33
77159;BME280;66129;45.890;13.714;2023-04-01T03:25:35;99848.09;;;5.10;97.90
77159;BME280;66129;45.890;13.714;2023-04-01T03:28:00;99836.22;;;5.09;97.47
77159;BME280;66129;45.890;13.714;2023-04-01T03:30:26;99830.97;;;5.03;97.10
77159;BME280;66129;45.890;13.714;2023-04-01T03:32:52;99834.47;;;5.07;96.77
77159;BME280;66129;45.890;13.714;2023-04-01T03:35:18;99834.47;;;5.07;96.71
77159;BME280;66129;45.890;13.714;2023-04-01T03:37:44;99839.16;;;5.24;96.34
77159;BME280;66129;45.890;13.714;2023-04-01T03:40:10;99816.69;;;5.07;96.47
77159;BME280;66129;45.890;13.714;2023-04-01T03:42:35;99806.44;;;5.04;96.46
77159;BME280;66129;45.890;13.714;2023-04-01T03:45:01;99827.50;;;5.00;96.30
77159;BME280;66129;45.890;13.714;2023-04-01T03:47:28;99835.03;;;4.97;96.22
77159;BME280;66129;45.890;13.714;2023-04-01T03:49:53;99823.41;;;4.74;95.04
77159;BME280;66129;45.890;13.714;2023-04-01T03:52:19;99843.47;;;4.65;95.75
77159;BME280;66129;45.890;13.714;2023-04-01T03:54:44;99850.69;;;4.51;96.31
77159;BME280;66129;45.890;13.714;2023-04-01T03:57:10;99861.78;;;4.55;96.91
77159;BME280;66129;45.890;13.714;2023-04-01T03:59:35;99843.53;;;4.38;97.13
77159;BME280;66129;45.890;13.714;2023-04-01T04:02:01;99827.19;;;4.29;97.74
77159;BME280;66129;45.890;13.714;2023-04-01T04:04:27;99864.00;;;4.44;98.25
77159;BME280;66129;45.890;13.714;2023-04-01T04:06:53;99868.97;;;4.40;98.33
77159;BME280;66129;45.890;13.714;2023-04-01T04:09:18;99880.84;;;4.42;98.59
77159;BME280;66129;45.890;13.714;2023-04-01T04:11:43;99856.63;;;4.24;98.73
77159;BME280;66129;45.890;13.714;2023-04-01T04:14:09;99882.34;;;4.35;98.97
77159;BME280;66129;45.890;13.714;2023-04-01T04:16:35;99861.13;;;4.33;98.97
77159;BME280;66129;45.890;13.714;2023-04-01T04:19:02;99879.78;;;4.35;99.43
77159;BME280;66129;45.890;13.714;2023-04-01T04:21:28;99859.94;;;4.22;99.58
77159;BME280;66129;45.890;13.714;2023-04-01T04:23:54;99872.63;;;4.22;99.36
77159;BME280;66129;45.890;13.714;2023-04-01T04:26:19;99864.38;;;4.01;97.93
77159;BME280;66129;45.890;13.714;2023-04-01T04:28:45;99858.81;;;3.86;98.06
77159;BME280;66129;45.890;13.714;2023-04-01T04:31:11;99887.72;;;3.91;97.96
77159;BME280;66129;45.890;13.714;2023-04-01T04:33:37;99878.84;;;3.78;97.84
77159;BME280;66129;45.890;13.714;2023-04-01T04:36:03;99898.63;;;3.88;98.90
77159;BME280;66129;45.890;13.714;2023-04-01T04:38:29;99877.16;;;3.79;98.95
77159;BME280;66129;45.890;13.714;2023-04-01T04:40:55;99904.44;;;3.86;98.39
77159;BME280;66129;45.890;13.714;2023-04-01T04:43:21;99863.69;;;3.53;98.73
77159;BME280;66129;45.890;13.714;2023-04-01T04:45:46;99909.00;;;3.96;99.27
77159;BME280;66129;45.890;13.714;2023-04-01T04:48:14;99914.19;;;4.00;98.48
77159;BME280;66129;45.890;13.714;2023-04-01T04:50:47;99913.53;;;4.06;97.57
77159;BME280;66129;45.890;13.714;2023-04-01T04:53:13;99924.84;;;4.15;96.85
77159;BME280;66129;45.890;13.714;2023-04-01T04:55:44;99899.19;;;4.06;97.54
77159;BME280;66129;45.890;13.714;2023-04-01T04:58:10;99886.91;;;3.92;95.73
77159;BME280;66129;45.890;13.714;2023-04-01T05:00:35;99911.44;;;3.93;95.83
77159;BME280;66129;45.890;13.714;2023-04-01T05:03:01;99893.09;;;3.75;96.38
77159;BME280;66129;45.890;13.714;2023-04-01T05:05:26;99909.56;;;3.87;97.70
77159;BME280;66129;45.890;13.714;2023-04-01T05:07:52;99904.97;;;4.02;98.61
77159;BME280;66129;45.890;13.714;2023-04-01T05:10:17;99926.16;;;4.04;98.78
77159;BME280;66129;45.890;13.714;2023-04-01T05:12:43;99927.59;;;3.96;98.12
77159;BME280;66129;45.890;13.714;2023-04-01T05:15:08;99902.78;;;3.86;96.58
77159;BME280;66129;45.890;13.714;2023-04-01T05:17:34;99926.56;;;4.16;94.00
77159;BME280;66129;45.890;13.714;2023-04-01T05:20:00;99914.84;;;4.21;95.30
77159;BME280;66129;45.890;13.714;2023-04-01T05:22:26;99941.09;;;4.48;97.04
77159;BME280;66129;45.890;13.714;2023-04-01T05:24:52;99928.06;;;4.93;96.67
77159;BME280;66129;45.890;13.714;2023-04-01T05:27:17;99923.81;;;5.55;89.65
77159;BME280;66129;45.890;13.714;2023-04-01T05:29:43;99933.25;;;5.59;88.84
77159;BME280;66129;45.890;13.714;2023-04-01T05:32:08;99931.69;;;5.64;92.29
77159;BME280;66129;45.890;13.714;2023-04-01T05:34:34;99915.31;;;5.55;92.97
77159;BME280;66129;45.890;13.714;2023-04-01T05:36:59;99937.69;;;5.66;94.82
77159;BME280;66129;45.890;13.714;2023-04-01T05:39:25;99913.38;;;5.45;97.73
77159;BME280;66129;45.890;13.714;2023-04-01T05:41:51;99937.34;;;5.54;96.94
77159;BME280;66129;45.890;13.714;2023-04-01T05:44:17;99957.75;;;5.57;95.19
77159;BME280;66129;45.890;13.714;2023-04-01T05:46:43;99935.25;;;5.39;94.32
77159;BME280;66129;45.890;13.714;2023-04-01T05:49:08;99947.44;;;5.51;94.10
77159;BME280;66129;45.890;13.714;2023-04-01T05:51:34;99950.56;;;5.74;94.67
77159;BME280;66129;45.890;13.714;2023-04-01T05:53:59;99942.50;;;5.88;94.45
77159;BME280;66129;45.890;13.714;2023-04-01T05:56:25;99955.47;;;5.99;95.23
77159;BME280;66129;45.890;13.714;2023-04-01T05:58:53;99951.09;;;5.93;92.49
77159;BME280;66129;45.890;13.714;2023-04-01T06:01:19;99933.91;;;5.83;93.70
77159;BME280;66129;45.890;13.714;2023-04-01T06:03:45;99958.94;;;6.02;96.21
77159;BME280;66129;45.890;13.714;2023-04-01T06:06:20;99965.97;;;6.12;96.49
77159;BME280;66129;45.890;13.714;2023-04-01T06:08:48;99967.94;;;6.24;97.04
77159;BME280;66129;45.890;13.714;2023-04-01T06:11:25;99968.28;;;6.37;96.80
77159;BME280;66129;45.890;13.714;2023-04-01T06:16:54;99967.44;;;6.38;96.93
77159;BME280;66129;45.890;13.714;2023-04-01T06:22:49;99972.00;;;6.16;92.48
77159;BME280;66129;45.890;13.714;2023-04-01T06:28:21;99983.63;;;6.06;96.67
77159;BME280;66129;45.890;13.714;2023-04-01T06:33:52;99989.25;;;6.27;96.21
77159;BME280;66129;45.890;13.714;2023-04-01T06:37:02;99975.59;;;6.24;96.44
77159;BME280;66129;45.890;13.714;2023-04-01T06:45:11;99986.69;;;7.01;94.50
77159;BME280;66129;45.890;13.714;2023-04-01T06:56:05;99952.03;;;7.09;93.58
77159;BME280;66129;45.890;13.714;2023-04-01T06:58:37;99948.50;;;7.44;93.04
77159;BME280;66129;45.890;13.714;2023-04-01T07:01:08;99983.41;;;7.92;91.47
77159;BME280;66129;45.890;13.714;2023-04-01T07:03:46;99994.59;;;8.50;89.54
77159;BME280;66129;45.890;13.714;2023-04-01T07:06:30;99986.69;;;8.91;88.69
77159;BME280;66129;45.890;13.714;2023-04-01T07:08:59;100003.00;;;9.71;86.24
77159;BME280;66129;45.890;13.714;2023-04-01T07:11:34;100003.91;;;10.66;81.23
77159;BME280;66129;45.890;13.714;2023-04-01T07:14:02;100007.91;;;11.82;77.56
77159;BME280;66129;45.890;13.714;2023-04-01T07:16:30;100014.81;;;12.93;72.28
77159;BME280;66129;45.890;13.714;2023-04-01T07:21:34;100018.28;;;14.57;65.23
77159;BME280;66129;45.890;13.714;2023-04-01T07:24:15;100012.03;;;15.61;63.44
77159;BME280;66129;45.890;13.714;2023-04-01T07:26:42;100010.13;;;16.36;59.89
77159;BME280;66129;45.890;13.714;2023-04-01T07:29:12;100012.53;;;16.48;56.52
77159;BME280;66129;45.890;13.714;2023-04-01T07:31:51;100012.72;;;16.85;55.33
77159;BME280;66129;45.890;13.714;2023-04-01T07:34:25;100011.78;;;16.91;55.91
77159;BME280;66129;45.890;13.714;2023-04-01T07:37:02;100011.38;;;17.10;56.00
77159;BME280;66129;45.890;13.714;2023-04-01T07:39:44;100002.16;;;17.84;54.03
77159;BME280;66129;45.890;13.714;2023-04-01T07:42:31;100012.09;;;18.41;49.77
77159;BME280;66129;45.890;13.714;2023-04-01T07:56:10;100021.25;;;19.22;46.08
77159;BME280;66129;45.890;13.714;2023-04-01T08:01:39;100029.50;;;20.77;41.51
77159;BME280;66129;45.890;13.714;2023-04-01T08:07:22;100032.22;;;21.25;39.84
77159;BME280;66129;45.890;13.714;2023-04-01T08:10:20;100035.56;;;21.52;40.74
77159;BME280;66129;45.890;13.714;2023-04-01T08:19:00;100030.88;;;21.37;41.32
77159;BME280;66129;45.890;13.714;2023-04-01T08:21:35;100031.13;;;21.54;40.03
77159;BME280;66129;45.890;13.714;2023-04-01T08:24:42;100034.78;;;21.49;39.58
77159;BME280;66129;45.890;13.714;2023-04-01T08:27:21;100037.34;;;21.98;38.33
77159;BME280;66129;45.890;13.714;2023-04-01T08:29:54;100037.97;;;21.81;37.54
77159;BME280;66129;45.890;13.714;2023-04-01T08:32:35;100039.06;;;22.20;37.59
77159;BME280;66129;45.890;13.714;2023-04-01T08:35:33;100021.59;;;22.85;37.85
77159;BME280;66129;45.890;13.714;2023-04-01T08:38:52;100029.59;;;23.42;34.29
77159;BME280;66129;45.890;13.714;2023-04-01T08:41:00;100013.50;;;23.12;35.64
77159;BME280;66129;45.890;13.714;2023-04-01T08:57:21;100025.94;;;22.64;35.01
77159;BME280;66129;45.890;13.714;2023-04-01T09:07:43;100049.06;;;22.95;36.00
77159;BME280;66129;45.890;13.714;2023-04-01T09:10:20;100047.38;;;23.92;35.04
77159;BME280;66129;45.890;13.714;2023-04-01T09:27:02;100048.41;;;24.26;32.94
77159;BME280;66129;45.890;13.714;2023-04-01T09:32:54;100047.19;;;23.76;34.84
77159;BME280;66129;45.890;13.714;2023-04-01T09:38:29;100036.81;;;23.17;34.06
77159;BME280;66129;45.890;13.714;2023-04-01T09:43:45;100040.13;;;23.98;35.25
77159;BME280;66129;45.890;13.714;2023-04-01T10:10:42;100037.69;;;24.66;32.32
77159;BME280;66129;45.890;13.714;2023-04-01T10:13:38;100037.78;;;24.81;31.87
77159;BME280;66129;45.890;13.714;2023-04-01T10:31:34;100029.25;;;25.46;30.52
77159;BME280;66129;45.890;13.714;2023-04-01T10:45:46;100016.81;;;26.12;30.69
77159;BME280;66129;45.890;13.714;2023-04-01T10:54:02;100009.78;;;26.28;30.33
77159;BME280;66129;45.890;13.714;2023-04-01T10:56:48;100014.53;;;26.22;29.22
77159;BME280;66129;45.890;13.714;2023-04-01T11:21:44;99984.53;;;25.47;29.75
77159;BME280;66129;45.890;13.714;2023-04-01T11:27:03;99984.28;;;25.02;33.97
77159;BME280;66129;45.890;13.714;2023-04-01T11:30:02;99985.03;;;25.54;31.36
77159;BME280;66129;45.890;13.714;2023-04-01T11:32:43;99972.00;;;23.62;32.70
77159;BME280;66129;45.890;13.714;2023-04-01T11:40:45;99960.81;;;21.74;36.50
77159;BME280;66129;45.890;13.714;2023-04-01T11:46:36;99970.88;;;22.06;37.23
77159;BME280;66129;45.890;13.714;2023-04-01T12:08:25;99944.88;;;23.26;34.58
77159;BME280;66129;45.890;13.714;2023-04-01T12:13:55;99948.03;;;22.33;38.24
77159;BME280;66129;45.890;13.714;2023-04-01T12:27:52;99932.34;;;23.14;35.03
77159;BME280;66129;45.890;13.714;2023-04-01T12:33:38;99921.34;;;23.26;37.64
77159;BME280;66129;45.890;13.714;2023-04-01T12:44:57;99936.63;;;21.71;32.09
77159;BME280;66129;45.890;13.714;2023-04-01T12:50:34;99935.06;;;21.42;31.33
77159;BME280;66129;45.890;13.714;2023-04-01T12:55:55;99931.97;;;21.33;33.83
77159;BME280;66129;45.890;13.714;2023-04-01T13:03:48;99931.84;;;21.36;28.96
77159;BME280;66129;45.890;13.714;2023-04-01T13:12:36;99918.41;;;21.46;29.41
77159;BME280;66129;45.890;13.714;2023-04-01T13:28:28;99897.22;;;20.36;31.94
77159;BME280;66129;45.890;13.714;2023-04-01T13:58:26;99864.22;;;20.11;34.30
77159;BME280;66129;45.890;13.714;2023-04-01T14:06:59;99881.75;;;20.32;32.57
77159;BME280;66129;45.890;13.714;2023-04-01T14:15:25;99874.03;;;20.29;33.81
77159;BME280;66129;45.890;13.714;2023-04-01T14:20:39;99867.16;;;20.26;32.51
77159;BME280;66129;45.890;13.714;2023-04-01T14:23:19;99884.81;;;20.18;33.37
77159;BME280;66129;45.890;13.714;2023-04-01T14:26:10;99866.34;;;20.26;33.07
77159;BME280;66129;45.890;13.714;2023-04-01T14:33:57;99875.31;;;20.17;33.27
77159;BME280;66129;45.890;13.714;2023-04-01T14:36:41;99859.53;;;20.22;36.72
77159;BME280;66129;45.890;13.714;2023-04-01T14:41:58;99884.66;;;20.23;31.76
77159;BME280;66129;45.890;13.714;2023-04-01T14:49:54;99863.38;;;19.83;35.58
77159;BME280;66129;45.890;13.714;2023-04-01T14:52:31;99884.38;;;20.06;37.82
77159;BME280;66129;45.890;13.714;2023-04-01T14:55:00;99883.81;;;19.68;34.72
77159;BME280;66129;45.890;13.714;2023-04-01T14:57:31;99858.78;;;19.65;34.16
77159;BME280;66129;45.890;13.714;2023-04-01T15:05:42;99823.66;;;19.25;40.09
77159;BME280;66129;45.890;13.714;2023-04-01T15:08:17;99881.25;;;19.39;39.46
77159;BME280;66129;45.890;13.714;2023-04-01T15:18:49;99885.50;;;19.14;42.12
77159;BME280;66129;45.890;13.714;2023-04-01T15:24:07;99889.41;;;18.97;42.30
77159;BME280;66129;45.890;13.714;2023-04-01T15:32:45;99904.47;;;18.54;48.85
77159;BME280;66129;45.890;13.714;2023-04-01T15:35:21;99908.06;;;18.48;49.90
77159;BME280;66129;45.890;13.714;2023-04-01T15:45:42;99906.75;;;17.60;51.20
77159;BME280;66129;45.890;13.714;2023-04-01T16:02:54;99932.34;;;16.93;55.19
77159;BME280;66129;45.890;13.714;2023-04-01T16:05:05;99932.78;;;16.69;56.05
77159;BME280;66129;45.890;13.714;2023-04-01T16:07:43;99872.69;;;16.04;56.03
77159;BME280;66129;45.890;13.714;2023-04-01T16:15:47;99945.69;;;16.19;56.55
77159;BME280;66129;45.890;13.714;2023-04-01T16:18:43;99952.72;;;16.11;57.23
77159;BME280;66129;45.890;13.714;2023-04-01T16:26:44;99950.06;;;15.58;57.40
77159;BME280;66129;45.890;13.714;2023-04-01T16:29:28;99952.47;;;15.72;57.62
77159;BME280;66129;45.890;13.714;2023-04-01T16:32:20;99936.16;;;15.68;57.07
77159;BME280;66129;45.890;13.714;2023-04-01T16:35:16;99949.78;;;15.78;57.56
77159;BME280;66129;45.890;13.714;2023-04-01T16:40:23;99926.53;;;15.76;57.56
77159;BME280;66129;45.890;13.714;2023-04-01T16:42:53;99870.09;;;15.50;57.37
77159;BME280;66129;45.890;13.714;2023-04-01T16:45:29;99913.56;;;15.79;57.04
77159;BME280;66129;45.890;13.714;2023-04-01T16:48:00;99918.69;;;15.84;55.74
77159;BME280;66129;45.890;13.714;2023-04-01T16:53:30;99944.72;;;15.72;58.41
77159;BME280;66129;45.890;13.714;2023-04-01T17:01:00;99916.69;;;15.45;58.09
77159;BME280;66129;45.890;13.714;2023-04-01T17:03:43;99920.28;;;15.32;57.94
77159;BME280;66129;45.890;13.714;2023-04-01T17:12:25;99941.06;;;15.20;59.22
77159;BME280;66129;45.890;13.714;2023-04-01T17:15:26;99941.19;;;15.13;59.60
77159;BME280;66129;45.890;13.714;2023-04-01T17:18:01;99939.59;;;15.00;60.84
77159;BME280;66129;45.890;13.714;2023-04-01T17:20:46;99938.94;;;14.83;62.00
77159;BME280;66129;45.890;13.714;2023-04-01T17:23:23;99951.91;;;14.72;64.01
77159;BME280;66129;45.890;13.714;2023-04-01T17:29:09;99960.09;;;14.26;65.67
77159;BME280;66129;45.890;13.714;2023-04-01T17:37:24;99949.38;;;13.58;67.56
77159;BME280;66129;45.890;13.714;2023-04-01T17:42:42;99979.50;;;13.46;68.92
77159;BME280;66129;45.890;13.714;2023-04-01T17:45:21;99971.88;;;13.15;70.41
77159;BME280;66129;45.890;13.714;2023-04-01T17:50:22;99988.19;;;13.15;70.75
77159;BME280;66129;45.890;13.714;2023-04-01T17:58:27;99978.78;;;12.86;71.99
77159;BME280;66129;45.890;13.714;2023-04-01T18:01:15;100009.69;;;12.95;71.52
77159;BME280;66129;45.890;13.714;2023-04-01T18:06:34;100009.69;;;12.90;73.06
77159;BME280;66129;45.890;13.714;2023-04-01T18:09:29;100010.53;;;12.82;72.56
77159;BME280;66129;45.890;13.714;2023-04-01T18:17:54;100022.53;;;12.36;74.71
77159;BME280;66129;45.890;13.714;2023-04-01T18:25:37;100036.16;;;11.86;78.03
77159;BME280;66129;45.890;13.714;2023-04-01T18:28:16;100026.75;;;11.81;77.82
77159;BME280;66129;45.890;13.714;2023-04-01T18:30:51;99969.22;;;11.35;76.52
77159;BME280;66129;45.890;13.714;2023-04-01T18:33:31;99985.44;;;11.22;77.65
77159;BME280;66129;45.890;13.714;2023-04-01T18:38:35;100030.75;;;11.25;78.73
77159;BME280;66129;45.890;13.714;2023-04-01T18:41:35;100052.19;;;11.37;78.48
77159;BME280;66129;45.890;13.714;2023-04-01T18:49:45;100059.84;;;11.24;80.52
77159;BME280;66129;45.890;13.714;2023-04-01T18:57:49;100051.19;;;11.07;78.79
77159;BME280;66129;45.890;13.714;2023-04-01T19:00:25;100054.63;;;11.10;79.37
77159;BME280;66129;45.890;13.714;2023-04-01T19:03:06;100048.63;;;11.13;79.54
77159;BME280;66129;45.890;13.714;2023-04-01T19:05:36;100061.53;;;11.22;78.89
77159;BME280;66129;45.890;13.714;2023-04-01T19:16:58;100067.47;;;11.09;78.94
77159;BME280;66129;45.890;13.714;2023-04-01T19:28:07;100082.25;;;10.37;82.16
77159;BME280;66129;45.890;13.714;2023-04-01T19:30:57;100087.31;;;10.30;83.42
77159;BME280;66129;45.890;13.714;2023-04-01T19:37:05;100089.44;;;9.95;81.76
77159;BME280;66129;45.890;13.714;2023-04-01T19:39:24;100100.38;;;9.80;82.97
77159;BME280;66129;45.890;13.714;2023-04-01T19:45:00;100085.53;;;9.52;83.54
77159;BME280;66129;45.890;13.714;2023-04-01T19:50:50;100105.28;;;9.63;83.38
77159;BME280;66129;45.890;13.714;2023-04-01T19:56:23;100113.75;;;9.61;82.47
77159;BME280;66129;45.890;13.714;2023-04-01T19:59:05;100046.66;;;9.14;82.64
77159;BME280;66129;45.890;13.714;2023-04-01T20:01:41;100116.13;;;9.47;84.80
77159;BME280;66129;45.890;13.714;2023-04-01T20:04:39;100114.31;;;9.39;85.12
77159;BME280;66129;45.890;13.714;2023-04-01T20:07:27;100120.00;;;9.17;87.78
77159;BME280;66129;45.890;13.714;2023-04-01T20:10:09;100125.28;;;9.30;86.61
77159;BME280;66129;45.890;13.714;2023-04-01T20:16:18;100131.34;;;9.35;86.69
77159;BME280;66129;45.890;13.714;2023-04-01T20:23:53;100126.34;;;8.88;85.85
77159;BME280;66129;45.890;13.714;2023-04-01T20:26:40;100112.53;;;8.76;87.16
77159;BME280;66129;45.890;13.714;2023-04-01T20:29:18;100140.81;;;8.87;86.57
77159;BME280;66129;45.890;13.714;2023-04-01T20:32:16;100146.78;;;8.88;85.23
77159;BME280;66129;45.890;13.714;2023-04-01T20:34:58;100133.56;;;8.61;89.28
77159;BME280;66129;45.890;13.714;2023-04-01T20:40:27;100148.06;;;8.62;88.53
77159;BME280;66129;45.890;13.714;2023-04-01T20:48:23;100158.81;;;8.93;87.17
77159;BME280;66129;45.890;13.714;2023-04-01T20:51:14;100145.91;;;8.87;88.14
77159;BME280;66129;45.890;13.714;2023-04-01T20:53:49;100149.28;;;8.83;88.90
77159;BME280;66129;45.890;13.714;2023-04-01T20:59:38;100140.13;;;8.96;85.99
77159;BME280;66129;45.890;13.714;2023-04-01T21:21:40;100156.13;;;8.37;89.07
77159;BME280;66129;45.890;13.714;2023-04-01T21:46:21;100180.28;;;8.56;90.37
77159;BME280;66129;45.890;13.714;2023-04-01T21:49:14;100191.75;;;8.77;89.64
77159;BME280;66129;45.890;13.714;2023-04-01T21:57:22;100187.28;;;8.64;91.03
77159;BME280;66129;45.890;13.714;2023-04-01T22:05:02;100153.13;;;8.59;90.22
77159;BME280;66129;45.890;13.714;2023-04-01T22:08:30;100183.19;;;8.74;90.70
77159;BME280;66129;45.890;13.714;2023-04-01T22:10:48;100182.22;;;8.69;90.46
77159;BME280;66129;45.890;13.714;2023-04-01T22:13:34;100157.34;;;8.57;90.19
77159;BME280;66129;45.890;13.714;2023-04-01T22:18:43;100185.72;;;8.74;90.08
77159;BME280;66129;45.890;13.714;2023-04-01T22:24:20;100153.00;;;8.53;91.02
77159;BME280;66129;45.890;13.714;2023-04-01T22:26:56;100160.84;;;8.62;90.17
77159;BME280;66129;45.890;13.714;2023-04-01T22:32:33;100184.28;;;8.89;89.56
77159;BME280;66129;45.890;13.714;2023-04-01T22:35:12;100180.78;;;8.82;90.38
77159;BME280;66129;45.890;13.714;2023-04-01T22:38:07;100179.06;;;8.83;90.17
77159;BME280;66129;45.890;13.714;2023-04-01T22:43:40;100189.06;;;8.68;90.75
77159;BME280;66129;45.890;13.714;2023-04-01T22:49:36;100178.78;;;8.65;90.22
77159;BME280;66129;45.890;13.714;2023-04-01T22:54:45;100178.91;;;8.74;89.34
77159;BME280;66129;45.890;13.714;2023-04-01T23:00:03;100197.56;;;8.70;91.24
77159;BME280;66129;45.890;13.714;2023-04-01T23:02:37;100181.75;;;8.43;91.46
77159;BME280;66129;45.890;13.714;2023-04-01T23:05:06;100155.59;;;8.12;92.62
77159;BME280;66129;45.890;13.714;2023-04-01T23:07:43;100187.28;;;8.21;92.28